createdAt,value
2019-03-02T00:01:04.749Z,99.10
2019-03-02T00:03:34.924Z,99.20
2019-03-02T00:06:02.594Z,99.20
2019-03-02T00:08:30.556Z,99.10
2019-03-02T00:10:58.278Z,99.20
2019-03-02T00:13:26.769Z,99.20
2019-03-02T00:15:54.776Z,99.20
2019-03-02T00:18:25.690Z,99.30
2019-03-02T00:20:55.413Z,99.40
2019-03-02T00:23:21.836Z,99.40
2019-03-02T00:25:50.302Z,99.50
2019-03-02T00:28:18.019Z,99.50
2019-03-02T00:30:45.460Z,99.70
2019-03-02T00:33:13.138Z,99.90
2019-03-02T00:35:43.735Z,99.60
2019-03-02T00:38:10.982Z,99.70
2019-03-02T00:40:38.941Z,99.80
2019-03-02T00:43:06.807Z,99.70
2019-03-02T00:45:34.516Z,99.80
2019-03-02T00:48:02.367Z,99.90
2019-03-02T00:50:30.097Z,99.90
2019-03-02T00:52:59.238Z,99.90
2019-03-02T00:55:28.606Z,99.90
2019-03-02T00:57:57.154Z,99.90
2019-03-02T01:00:24.750Z,99.90
2019-03-02T01:02:52.334Z,99.90
2019-03-02T01:05:19.642Z,99.90
2019-03-02T01:07:47.739Z,99.90
2019-03-02T01:10:18.932Z,99.90
2019-03-02T01:12:45.278Z,99.90
2019-03-02T01:15:13.362Z,99.90
2019-03-02T01:17:41.053Z,99.90
2019-03-02T01:20:10.033Z,99.90
2019-03-02T01:22:38.886Z,99.90
2019-03-02T01:25:10.355Z,99.90
2019-03-02T01:27:37.525Z,99.90
2019-03-02T01:30:07.481Z,99.90
2019-03-02T01:32:35.016Z,99.90
2019-03-02T01:35:02.446Z,99.90
2019-03-02T01:37:29.982Z,99.90
2019-03-02T01:40:00.932Z,99.90
2019-03-02T01:42:29.785Z,99.90
2019-03-02T01:44:56.404Z,99.90
2019-03-02T01:47:24.457Z,99.90
2019-03-02T01:49:52.375Z,99.90
2019-03-02T01:52:20.559Z,99.90
2019-03-02T01:54:48.493Z,99.90
2019-03-02T01:57:17.242Z,99.80
2019-03-02T01:59:45.398Z,99.80
2019-03-02T02:02:13.497Z,99.80
2019-03-02T02:04:41.424Z,99.70
2019-03-02T02:07:08.948Z,99.70
2019-03-02T02:09:40.181Z,99.80
2019-03-02T02:12:05.849Z,99.70
2019-03-02T02:14:33.375Z,99.70
2019-03-02T02:17:01.290Z,99.70
2019-03-02T02:19:28.772Z,99.80
2019-03-02T02:21:58.725Z,99.90
2019-03-02T02:24:29.225Z,99.90
2019-03-02T02:26:57.005Z,99.90
2019-03-02T02:29:24.944Z,99.90
2019-03-02T02:31:53.450Z,99.90
2019-03-02T02:34:23.455Z,99.90
2019-03-02T02:36:53.126Z,99.90
2019-03-02T02:39:21.124Z,99.90
2019-03-02T02:41:48.621Z,99.90
2019-03-02T02:44:17.411Z,99.90
2019-03-02T02:46:44.722Z,99.90
2019-03-02T02:49:12.057Z,99.90
2019-03-02T02:51:39.417Z,99.90
2019-03-02T02:54:07.119Z,99.90
2019-03-02T02:56:34.830Z,99.90
2019-03-02T02:59:02.669Z,99.90
2019-03-02T03:01:33.768Z,99.90
2019-03-02T03:04:00.963Z,99.90
2019-03-02T03:06:32.650Z,99.90
2019-03-02T03:08:57.925Z,99.90
2019-03-02T03:11:25.633Z,99.90
2019-03-02T03:13:53.175Z,99.90
2019-03-02T03:16:21.092Z,99.90
2019-03-02T03:18:52.167Z,99.90
2019-03-02T03:21:27.257Z,99.90
2019-03-02T03:23:53.927Z,99.90
2019-03-02T03:26:21.321Z,99.90
2019-03-02T03:28:49.138Z,99.90
2019-03-02T03:31:23.321Z,99.90
2019-03-02T03:33:47.129Z,99.90
2019-03-02T03:36:15.099Z,99.90
2019-03-02T03:38:42.685Z,99.90
2019-03-02T03:41:10.588Z,99.90
2019-03-02T03:43:42.448Z,99.90
2019-03-02T03:46:08.258Z,99.90
2019-03-02T03:48:36.057Z,99.90
2019-03-02T03:51:03.561Z,99.90
2019-03-02T03:53:32.199Z,99.90
2019-03-02T03:56:04.106Z,99.90
2019-03-02T03:58:30.250Z,99.90
2019-03-02T04:00:57.823Z,99.90
2019-03-02T04:03:25.243Z,99.90
2019-03-02T04:05:53.136Z,99.90
2019-03-02T04:08:24.216Z,99.90
2019-03-02T04:10:50.645Z,99.90
2019-03-02T04:13:18.410Z,99.90
2019-03-02T04:15:45.971Z,99.90
2019-03-02T04:18:50.248Z,99.90
2019-03-02T04:21:17.309Z,99.90
2019-03-02T04:23:45.292Z,99.90
2019-03-02T04:26:12.947Z,99.90
2019-03-02T04:28:40.466Z,99.90
2019-03-02T04:31:09.007Z,99.90
2019-03-02T04:33:39.149Z,99.90
2019-03-02T04:36:09.982Z,99.90
2019-03-02T04:38:37.077Z,99.90
2019-03-02T04:41:05.474Z,99.90
2019-03-02T04:43:34.486Z,99.90
2019-03-02T04:46:02.297Z,99.90
2019-03-02T04:48:30.607Z,99.90
2019-03-02T04:50:59.651Z,99.90
2019-03-02T04:53:27.440Z,99.90
2019-03-02T04:55:55.203Z,99.90
2019-03-02T04:58:24.120Z,99.90
2019-03-02T05:00:52.042Z,99.90
2019-03-02T05:03:19.541Z,99.90
2019-03-02T05:05:47.130Z,99.90
2019-03-02T05:08:15.065Z,99.90
2019-03-02T05:10:42.453Z,99.90
2019-03-02T05:13:10.047Z,99.90
2019-03-02T05:15:37.588Z,99.90
2019-03-02T05:18:05.284Z,99.90
2019-03-02T05:20:33.171Z,99.90
2019-03-02T05:23:01.529Z,99.90
2019-03-02T05:25:29.132Z,99.90
2019-03-02T05:27:56.433Z,99.90
2019-03-02T05:30:26.814Z,99.90
2019-03-02T05:32:53.440Z,99.90
2019-03-02T05:35:20.886Z,99.90
2019-03-02T05:37:53.214Z,99.90
2019-03-02T05:40:20.922Z,99.90
2019-03-02T05:42:51.793Z,99.90
2019-03-02T05:45:20.353Z,99.90
2019-03-02T05:47:48.668Z,99.90
2019-03-02T05:50:16.503Z,99.90
2019-03-02T05:52:43.986Z,99.90
2019-03-02T05:55:14.268Z,99.90
2019-03-02T05:57:41.487Z,99.90
2019-03-02T06:00:09.434Z,99.90
2019-03-02T06:02:37.677Z,99.90
2019-03-02T06:05:09.241Z,99.90
2019-03-02T06:07:37.180Z,99.90
2019-03-02T06:10:05.495Z,99.90
2019-03-02T06:12:33.076Z,99.90
2019-03-02T06:15:03.991Z,99.90
2019-03-02T06:17:33.183Z,99.90
2019-03-02T06:20:00.314Z,99.90
2019-03-02T06:22:28.194Z,99.90
2019-03-02T06:24:56.234Z,99.90
2019-03-02T06:27:24.224Z,99.90
2019-03-02T06:29:51.990Z,99.90
2019-03-02T06:32:20.670Z,99.90
2019-03-02T06:34:51.833Z,99.90
2019-03-02T06:37:19.984Z,99.90
2019-03-02T06:39:48.155Z,99.90
2019-03-02T06:42:15.712Z,99.90
2019-03-02T06:44:43.204Z,99.90
2019-03-02T06:47:11.369Z,99.90
2019-03-02T06:49:39.422Z,99.90
2019-03-02T06:52:07.586Z,99.90
2019-03-02T06:54:35.059Z,99.90
2019-03-02T06:57:02.790Z,99.90
2019-03-02T06:59:30.376Z,99.90
2019-03-02T07:01:59.743Z,99.90
2019-03-02T07:04:27.647Z,99.90
2019-03-02T07:06:55.290Z,99.90
2019-03-02T07:09:23.576Z,99.90
2019-03-02T07:11:51.161Z,99.90
2019-03-02T07:14:19.118Z,99.90
2019-03-02T07:16:46.645Z,99.90
2019-03-02T07:19:28.045Z,99.90
2019-03-02T07:21:57.602Z,99.90
2019-03-02T07:24:25.895Z,99.90
2019-03-02T07:26:55.560Z,99.90
2019-03-02T07:29:24.122Z,99.90
2019-03-02T07:31:52.098Z,99.90
2019-03-02T07:34:20.271Z,99.90
2019-03-02T07:36:48.150Z,99.90
2019-03-02T07:39:15.828Z,99.90
2019-03-02T07:41:43.618Z,99.90
2019-03-02T07:44:11.004Z,99.90
2019-03-02T07:46:38.533Z,99.90
2019-03-02T07:49:09.134Z,99.90
2019-03-02T07:51:37.871Z,99.90
2019-03-02T07:54:06.163Z,99.90
2019-03-02T07:56:35.916Z,99.90
2019-03-02T07:59:03.492Z,99.90
2019-03-02T08:01:31.178Z,99.90
2019-03-02T08:03:59.746Z,99.90
2019-03-02T08:06:28.697Z,99.90
2019-03-02T08:08:56.272Z,99.90
2019-03-02T08:11:24.721Z,99.90
2019-03-02T08:13:55.296Z,99.90
2019-03-02T08:16:22.783Z,99.90
2019-03-02T08:18:50.704Z,99.90
2019-03-02T08:21:18.563Z,99.90
2019-03-02T08:23:46.706Z,99.90
2019-03-02T08:26:14.368Z,99.90
2019-03-02T08:28:45.631Z,99.90
2019-03-02T08:31:11.516Z,99.90
2019-03-02T08:33:45.913Z,99.90
2019-03-02T08:36:08.982Z,99.90
2019-03-02T08:38:36.562Z,99.90
2019-03-02T08:41:04.412Z,99.90
2019-03-02T08:43:32.640Z,99.90
2019-03-02T08:46:03.568Z,99.90
2019-03-02T08:48:30.377Z,99.90
2019-03-02T08:50:58.553Z,99.90
2019-03-02T08:53:26.796Z,99.90
2019-03-02T08:55:54.361Z,99.90
2019-03-02T08:58:22.620Z,99.90
2019-03-02T09:00:51.586Z,99.90
2019-03-02T09:03:19.791Z,99.90
2019-03-02T09:05:51.581Z,99.90
2019-03-02T09:08:17.409Z,99.90
2019-03-02T09:10:45.907Z,99.90
2019-03-02T09:13:15.304Z,99.90
2019-03-02T09:15:43.216Z,99.90
2019-03-02T09:18:11.864Z,99.90
2019-03-02T09:20:39.332Z,99.90
2019-03-02T09:23:07.300Z,99.90
2019-03-02T09:25:35.379Z,99.90
2019-03-02T09:28:03.090Z,99.90
2019-03-02T09:30:31.944Z,99.90
2019-03-02T09:32:59.590Z,99.90
2019-03-02T09:35:27.171Z,99.90
2019-03-02T09:37:54.980Z,99.90
2019-03-02T09:40:24.592Z,99.90
2019-03-02T09:42:52.264Z,99.90
2019-03-02T09:45:20.347Z,99.90
2019-03-02T09:47:51.530Z,99.90
2019-03-02T09:50:17.858Z,99.90
2019-03-02T09:52:45.945Z,99.90
2019-03-02T09:55:17.786Z,99.90
2019-03-02T09:57:47.403Z,99.90
2019-03-02T10:00:19.304Z,99.90
2019-03-02T10:02:50.124Z,99.90
2019-03-02T10:05:23.233Z,99.90
2019-03-02T10:07:50.913Z,99.90
2019-03-02T10:10:18.470Z,99.90
2019-03-02T10:12:47.337Z,99.90
2019-03-02T10:15:19.425Z,99.90
2019-03-02T10:17:50.210Z,99.90
2019-03-02T10:20:18.171Z,99.90
2019-03-02T10:22:45.821Z,99.90
2019-03-02T10:25:13.928Z,99.90
2019-03-02T10:27:41.727Z,99.90
2019-03-02T10:30:12.039Z,99.90
2019-03-02T10:32:39.522Z,99.90
2019-03-02T10:35:07.774Z,99.90
2019-03-02T10:37:35.304Z,99.90
2019-03-02T10:40:05.612Z,99.90
2019-03-02T10:42:35.964Z,99.90
2019-03-02T10:45:04.241Z,99.90
2019-03-02T10:47:32.024Z,99.90
2019-03-02T10:50:00.330Z,99.90
2019-03-02T10:52:28.057Z,99.90
2019-03-02T10:54:55.930Z,99.90
2019-03-02T10:57:23.843Z,99.90
2019-03-02T10:59:53.170Z,99.90
2019-03-02T11:02:21.061Z,99.90
2019-03-02T11:04:53.096Z,99.90
2019-03-02T11:07:40.403Z,99.90
2019-03-02T11:10:39.015Z,99.90
2019-03-02T11:13:19.312Z,99.90
2019-03-02T11:16:07.332Z,99.90
2019-03-02T11:19:04.390Z,99.90
2019-03-02T11:21:52.523Z,99.90
2019-03-02T11:24:49.041Z,99.90
2019-03-02T11:27:24.356Z,99.90
2019-03-02T11:30:10.866Z,99.90
2019-03-02T11:33:16.641Z,99.90
2019-03-02T11:36:06.010Z,99.90
2019-03-02T11:38:45.545Z,99.90
2019-03-02T11:41:20.956Z,99.90
2019-03-02T11:44:07.141Z,99.90
2019-03-02T11:46:50.774Z,99.90
2019-03-02T11:49:38.566Z,99.90
2019-03-02T11:52:16.487Z,99.90
2019-03-02T11:55:00.908Z,99.90
2019-03-02T11:57:47.367Z,99.90
2019-03-02T12:00:37.725Z,99.90
2019-03-02T12:03:35.298Z,99.90
2019-03-02T12:06:37.907Z,99.90
2019-03-02T12:09:22.444Z,99.90
2019-03-02T12:12:25.232Z,99.90
2019-03-02T12:15:12.448Z,99.90
2019-03-02T12:17:49.712Z,99.90
2019-03-02T12:20:41.439Z,99.90
2019-03-02T12:23:19.250Z,99.90
2019-03-02T12:26:03.619Z,99.90
2019-03-02T12:29:00.259Z,99.90
2019-03-02T12:31:39.874Z,99.90
2019-03-02T12:34:16.390Z,99.90
2019-03-02T12:37:07.783Z,99.90
2019-03-02T12:39:56.705Z,99.90
2019-03-02T12:42:31.873Z,99.90
2019-03-02T12:45:15.937Z,99.90
2019-03-02T12:48:02.642Z,99.90
2019-03-02T12:50:38.762Z,99.90
2019-03-02T12:53:29.936Z,99.90
2019-03-02T12:56:06.891Z,99.90
2019-03-02T12:58:43.831Z,99.90
2019-03-02T13:01:26.535Z,99.90
2019-03-02T13:04:30.300Z,99.90
2019-03-02T13:07:10.431Z,99.90
2019-03-02T13:09:53.409Z,99.90
2019-03-02T13:12:32.492Z,99.90
2019-03-02T13:15:19.610Z,99.90
2019-03-02T13:17:56.146Z,99.90
2019-03-02T13:20:46.135Z,99.90
2019-03-02T13:23:32.208Z,99.70
2019-03-02T13:26:14.677Z,99.40
2019-03-02T13:28:48.249Z,99.30
2019-03-02T13:31:47.371Z,99.20
2019-03-02T13:34:36.028Z,99.20
2019-03-02T13:37:09.204Z,99.20
2019-03-02T13:39:56.446Z,99.20
2019-03-02T13:42:42.465Z,99.20
2019-03-02T13:45:24.012Z,99.10
2019-03-02T13:48:14.671Z,99.10
2019-03-02T13:51:00.514Z,99.20
2019-03-02T13:53:39.766Z,99.30
2019-03-02T13:56:17.922Z,99.40
2019-03-02T13:58:58.056Z,99.60
2019-03-02T14:01:36.093Z,99.70
2019-03-02T14:04:25.061Z,99.90
2019-03-02T14:07:17.813Z,99.90
2019-03-02T14:09:58.683Z,99.90
2019-03-02T14:13:04.366Z,99.90
2019-03-02T14:15:50.053Z,99.90
2019-03-02T14:18:42.984Z,99.90
2019-03-02T14:21:34.588Z,99.90
2019-03-02T14:24:20.483Z,99.90
2019-03-02T14:27:05.727Z,99.90
2019-03-02T14:29:51.336Z,99.90
2019-03-02T14:32:41.473Z,99.90
2019-03-02T14:35:31.267Z,99.90
2019-03-02T14:38:30.405Z,99.90
2019-03-02T14:41:05.007Z,99.90
2019-03-02T14:43:47.341Z,99.90
2019-03-02T14:46:37.333Z,99.90
2019-03-02T14:49:27.962Z,99.90
2019-03-02T14:52:13.368Z,99.90
2019-03-02T14:54:47.318Z,99.90
2019-03-02T14:57:26.293Z,99.90
2019-03-02T15:00:07.433Z,99.90
2019-03-02T15:02:56.085Z,99.90
2019-03-02T15:05:37.154Z,99.90
2019-03-02T15:08:18.198Z,99.90
2019-03-02T15:11:03.528Z,99.90
2019-03-02T15:13:53.864Z,99.90
2019-03-02T15:16:32.497Z,99.90
2019-03-02T15:19:15.644Z,99.90
2019-03-02T15:21:51.907Z,99.90
2019-03-02T15:24:34.318Z,99.90
2019-03-02T15:27:24.712Z,99.90
2019-03-02T15:30:23.173Z,99.90
2019-03-02T15:33:09.872Z,99.90
2019-03-02T15:35:56.309Z,99.90
2019-03-02T15:38:29.448Z,99.90
2019-03-02T15:41:10.898Z,99.90
2019-03-02T15:43:48.833Z,99.90
2019-03-02T15:46:39.685Z,99.90
2019-03-02T15:49:28.969Z,99.90
2019-03-02T15:52:34.211Z,99.90
2019-03-02T15:55:24.083Z,99.90
2019-03-02T15:58:09.659Z,99.90
2019-03-02T16:01:05.994Z,99.90
2019-03-02T16:04:00.796Z,99.90
2019-03-02T16:06:38.681Z,99.90
2019-03-02T16:09:28.787Z,99.90
2019-03-02T16:12:14.527Z,99.90
2019-03-02T16:15:04.865Z,99.90
2019-03-02T16:17:53.669Z,99.90
2019-03-02T16:20:27.926Z,99.90
2019-03-02T16:23:05.965Z,99.90
2019-03-02T16:25:51.346Z,99.90
2019-03-02T16:28:30.635Z,99.90
2019-03-02T16:31:23.895Z,99.90
2019-03-02T16:34:04.325Z,99.90
2019-03-02T16:36:44.230Z,99.90
2019-03-02T16:39:32.582Z,99.90
2019-03-02T16:42:22.947Z,99.90
2019-03-02T16:45:16.620Z,99.90
2019-03-02T16:48:03.549Z,99.90
2019-03-02T16:50:57.618Z,99.90
2019-03-02T16:53:53.636Z,99.90
2019-03-02T16:56:38.894Z,99.90
2019-03-02T16:59:12.394Z,99.90
2019-03-02T17:01:48.585Z,99.90
2019-03-02T17:04:39.476Z,99.90
2019-03-02T17:07:40.257Z,99.90
2019-03-02T17:10:24.995Z,99.90
2019-03-02T17:13:18.266Z,99.90
2019-03-02T17:16:20.546Z,99.90
2019-03-02T17:18:54.975Z,99.90
2019-03-02T17:21:52.936Z,99.90
2019-03-02T17:24:30.035Z,99.90
2019-03-02T17:27:22.603Z,99.90
2019-03-02T17:30:00.848Z,99.90
2019-03-02T17:32:46.653Z,99.90
2019-03-02T17:35:34.945Z,99.90
2019-03-02T17:38:24.737Z,99.90
2019-03-02T17:41:08.214Z,99.90
2019-03-02T17:44:03.930Z,99.90
2019-03-02T17:46:43.173Z,99.90
2019-03-02T17:49:46.132Z,99.90
2019-03-02T17:52:35.862Z,99.90
2019-03-02T17:55:35.698Z,99.90
2019-03-02T17:58:32.550Z,99.90
2019-03-02T18:01:24.589Z,99.90
2019-03-02T18:04:20.832Z,99.90
2019-03-02T18:07:13.774Z,99.90
2019-03-02T18:10:00.936Z,99.90
2019-03-02T18:12:54.822Z,99.90
2019-03-02T18:15:39.975Z,99.90
2019-03-02T18:18:16.072Z,99.90
2019-03-02T18:20:44.566Z,99.90
2019-03-02T18:23:12.114Z,99.90
2019-03-02T18:25:39.428Z,99.90
2019-03-02T18:28:10.008Z,99.90
2019-03-02T18:30:39.004Z,99.90
2019-03-02T18:33:24.091Z,99.90
2019-03-02T18:35:53.478Z,99.90
2019-03-02T18:38:21.223Z,99.90
2019-03-02T18:40:48.728Z,99.90
2019-03-02T18:43:16.790Z,99.90
2019-03-02T18:45:45.862Z,99.90
2019-03-02T18:48:25.258Z,99.90
2019-03-02T18:51:03.756Z,99.90
2019-03-02T18:53:35.093Z,99.90
2019-03-02T18:56:02.542Z,99.90
2019-03-02T18:58:30.148Z,99.90
2019-03-02T19:00:58.856Z,99.90
2019-03-02T19:03:26.641Z,99.90
2019-03-02T19:05:54.419Z,99.90
2019-03-02T19:08:22.045Z,99.90
2019-03-02T19:10:49.676Z,99.90
2019-03-02T19:13:17.296Z,99.90
2019-03-02T19:15:53.537Z,99.90
2019-03-02T19:18:14.361Z,99.90
2019-03-02T19:20:41.758Z,99.90
2019-03-02T19:23:10.739Z,99.90
2019-03-02T19:25:37.967Z,99.90
2019-03-02T19:28:05.302Z,99.90
2019-03-02T19:30:32.883Z,99.90
2019-03-02T19:33:00.572Z,99.90
2019-03-02T19:35:28.228Z,99.90
2019-03-02T19:37:57.236Z,99.90
2019-03-02T19:40:26.531Z,99.90
2019-03-02T19:42:54.066Z,99.90
2019-03-02T19:45:21.804Z,99.90
2019-03-02T19:47:49.676Z,99.90
2019-03-02T19:50:18.238Z,99.90
2019-03-02T19:52:47.972Z,99.90
2019-03-02T19:55:15.647Z,99.90
2019-03-02T19:57:43.238Z,99.90
2019-03-02T20:00:19.866Z,99.90
2019-03-02T20:02:47.878Z,99.90
2019-03-02T20:05:15.538Z,99.90
2019-03-02T20:07:43.631Z,99.90
2019-03-02T20:10:11.353Z,99.90
2019-03-02T20:12:39.030Z,99.90
2019-03-02T20:15:09.681Z,99.90
2019-03-02T20:17:37.599Z,99.90
2019-03-02T20:20:07.013Z,99.90
2019-03-02T20:22:35.075Z,99.90
2019-03-02T20:25:02.335Z,99.90
2019-03-02T20:27:29.870Z,99.90
2019-03-02T20:29:57.572Z,99.90
2019-03-02T20:32:26.565Z,99.90
2019-03-02T20:34:54.128Z,99.90
2019-03-02T20:37:21.890Z,99.90
2019-03-02T20:39:49.427Z,99.90
2019-03-02T20:42:16.911Z,99.90
2019-03-02T20:44:44.594Z,99.90
2019-03-02T20:47:12.650Z,99.90
2019-03-02T20:49:40.525Z,99.90
2019-03-02T20:52:08.180Z,99.90
2019-03-02T20:54:35.984Z,99.90
2019-03-02T20:57:03.827Z,99.90
2019-03-02T20:59:32.704Z,99.90
2019-03-02T21:02:01.408Z,99.90
2019-03-02T21:04:29.176Z,99.90
2019-03-02T21:06:56.987Z,99.90
2019-03-02T21:09:24.684Z,99.90
2019-03-02T21:11:52.038Z,99.90
2019-03-02T21:14:19.527Z,99.90
2019-03-02T21:16:47.360Z,99.90
2019-03-02T21:19:17.481Z,99.90
2019-03-02T21:21:45.539Z,99.90
2019-03-02T21:24:12.982Z,99.90
2019-03-02T21:26:40.787Z,99.90
2019-03-02T21:29:08.314Z,99.90
2019-03-02T21:31:36.465Z,99.90
2019-03-02T21:34:06.014Z,99.90
2019-03-02T21:36:34.043Z,99.90
2019-03-02T21:39:01.414Z,99.90
2019-03-02T21:41:28.982Z,99.90
2019-03-02T21:43:56.835Z,99.90
2019-03-02T21:46:24.435Z,99.90
2019-03-02T21:48:51.810Z,99.90
2019-03-02T21:51:21.296Z,99.90
2019-03-02T21:53:49.148Z,99.90
2019-03-02T21:56:16.883Z,99.90
2019-03-02T21:58:44.384Z,99.90
2019-03-02T22:01:11.928Z,99.90
2019-03-02T22:03:39.692Z,99.90
2019-03-02T22:06:14.198Z,99.90
2019-03-02T22:08:42.183Z,99.90
2019-03-02T22:11:10.959Z,99.90
2019-03-02T22:13:39.076Z,99.90
2019-03-02T22:16:06.735Z,99.90
2019-03-02T22:18:34.163Z,99.90
2019-03-02T22:21:02.556Z,99.90
2019-03-02T22:23:30.465Z,99.90
2019-03-02T22:25:58.532Z,99.90
2019-03-02T22:28:26.330Z,99.90
2019-03-02T22:30:53.572Z,99.90
2019-03-02T22:33:21.278Z,99.90
2019-03-02T22:35:49.222Z,99.90
2019-03-02T22:38:16.997Z,99.90
2019-03-02T22:40:44.938Z,99.90
2019-03-02T22:43:12.607Z,99.90
2019-03-02T22:45:40.595Z,99.90
2019-03-02T22:48:08.641Z,99.90
2019-03-02T22:50:37.088Z,99.90
2019-03-02T22:53:04.387Z,99.90
2019-03-02T22:55:32.081Z,99.90
2019-03-02T22:58:01.141Z,99.90
2019-03-02T23:00:55.200Z,99.90
2019-03-02T23:03:22.052Z,99.90
2019-03-02T23:05:49.510Z,99.90
2019-03-02T23:08:17.206Z,99.90
2019-03-02T23:10:44.555Z,99.90
2019-03-02T23:13:11.942Z,99.90
2019-03-02T23:15:39.284Z,99.90
2019-03-02T23:18:07.136Z,99.90
2019-03-02T23:20:34.519Z,99.90
2019-03-02T23:23:06.051Z,99.90
2019-03-02T23:25:34.155Z,99.90
2019-03-02T23:28:01.768Z,99.90
2019-03-02T23:30:29.959Z,99.90
2019-03-02T23:32:57.432Z,99.90
2019-03-02T23:35:25.961Z,99.90
2019-03-02T23:37:53.901Z,99.90
2019-03-02T23:40:24.085Z,99.90
2019-03-02T23:42:51.987Z,99.90
2019-03-02T23:45:19.580Z,99.90
2019-03-02T23:47:47.521Z,99.90
2019-03-02T23:50:16.177Z,99.90
2019-03-02T23:52:44.011Z,99.90
2019-03-02T23:55:11.482Z,99.90
2019-03-02T23:57:39.632Z,99.90
